Time;durP1;ratioP1;P1;durP2;ratioP2;P2;SDS_P1;SDS_P2;PMS_P1;PMS_P2;Temp;Humidity;BMP_temperature;BMP_pressure;BME280_temperature;BME280_humidity;BME280_pressure;Samples;Min_cycle;Max_cycle;Signal;HPM_P1;HPM_P2
2021/05/19 00:00:58;;;;;;;2.25;1.52;;;11.10;77.40;;;;;;5092119;28;20239;-74
2021/05/19 00:03:25;;;;;;;2.92;1.40;;;11.10;77.20;;;;;;5110611;28;20184;-74
2021/05/19 00:05:53;;;;;;;2.65;1.40;;;11.10;77.00;;;;;;5112694;28;20189;-73
2021/05/19 00:08:19;;;;;;;2.42;1.77;;;11.10;77.30;;;;;;5095433;28;20181;-73
2021/05/19 00:10:46;;;;;;;1.80;1.10;;;11.10;77.30;;;;;;5111797;28;20188;-74
2021/05/19 00:13:12;;;;;;;2.50;1.20;;;11.10;77.50;;;;;;5097009;28;20189;-74
2021/05/19 00:15:39;;;;;;;4.28;1.10;;;11.10;78.00;;;;;;5096194;28;20189;-74
2021/05/19 00:18:06;;;;;;;1.90;1.33;;;11.10;78.30;;;;;;5110108;28;20194;-74
2021/05/19 00:20:32;;;;;;;2.42;1.10;;;11.10;78.60;;;;;;5107732;28;20209;-74
2021/05/19 00:23:00;;;;;;;1.80;1.13;;;11.00;78.20;;;;;;5096282;28;20192;-74
2021/05/19 00:25:27;;;;;;;5.20;1.45;;;11.10;78.10;;;;;;5103710;28;20594;-75
2021/05/19 00:27:54;;;;;;;2.00;1.20;;;11.10;78.30;;;;;;5105701;28;20509;-74
2021/05/19 00:30:22;;;;;;;2.70;0.98;;;11.10;78.40;;;;;;5117348;28;20517;-74
2021/05/19 00:32:48;;;;;;;2.45;1.67;;;11.10;78.00;;;;;;5116177;28;20575;-75
2021/05/19 00:35:15;;;;;;;2.33;1.67;;;11.10;78.10;;;;;;5096203;28;20204;-74
2021/05/19 00:37:42;;;;;;;2.30;1.40;;;11.10;78.10;;;;;;5106030;28;20180;-74
2021/05/19 00:40:11;;;;;;;2.55;1.40;;;11.10;77.90;;;;;;5116581;28;20296;-74
2021/05/19 00:42:37;;;;;;;2.90;1.70;;;11.20;77.90;;;;;;5107326;28;20189;-74
2021/05/19 00:45:09;;;;;;;2.40;1.52;;;11.20;77.90;;;;;;5096374;28;20192;-74
2021/05/19 00:47:37;;;;;;;2.05;1.40;;;11.20;78.20;;;;;;5104218;28;20185;-73
2021/05/19 00:50:06;;;;;;;2.25;1.48;;;11.20;77.80;;;;;;5116403;28;20184;-73
2021/05/19 00:52:32;;;;;;;5.50;2.20;;;11.20;77.90;;;;;;5107938;28;20189;-74
2021/05/19 00:54:59;;;;;;;4.50;1.77;;;11.10;77.30;;;;;;5096112;28;20193;-73
2021/05/19 00:57:26;;;;;;;3.80;1.55;;;11.10;77.10;;;;;;5102578;28;20543;-74
2021/05/19 00:59:53;;;;;;;3.13;1.60;;;11.10;77.30;;;;;;5116132;28;20216;-74
2021/05/19 01:02:20;;;;;;;4.63;1.77;;;11.10;78.00;;;;;;5110216;28;20177;-73
2021/05/19 01:04:46;;;;;;;2.20;1.70;;;11.10;78.80;;;;;;5095354;28;20193;-73
2021/05/19 01:07:22;;;;;;;3.35;1.77;;;11.20;80.00;;;;;;5100128;28;20612;-73
2021/05/19 01:09:48;;;;;;;5.32;1.55;;;11.20;79.40;;;;;;5113040;28;20200;-74
2021/05/19 01:12:17;;;;;;;4.15;1.65;;;11.10;80.20;;;;;;5095667;28;20189;-74
2021/05/19 01:14:45;;;;;;;5.05;2.40;;;11.10;80.90;;;;;;5096575;28;20193;-74
2021/05/19 01:17:12;;;;;;;2.10;1.55;;;11.10;81.00;;;;;;5098812;28;20309;-74
2021/05/19 01:19:41;;;;;;;2.28;1.60;;;11.10;80.60;;;;;;5115789;28;20232;-74
2021/05/19 01:22:10;;;;;;;3.65;1.88;;;11.10;80.20;;;;;;5112122;28;20189;-73
2021/05/19 01:24:38;;;;;;;1.83;1.23;;;11.10;80.20;;;;;;5095615;28;20193;-74
2021/05/19 01:27:06;;;;;;;2.60;1.25;;;11.10;80.30;;;;;;5097264;28;20197;-73
2021/05/19 01:29:32;;;;;;;2.22;1.70;;;11.10;80.30;;;;;;5114915;28;20220;-73
2021/05/19 01:31:59;;;;;;;2.40;1.58;;;11.10;80.20;;;;;;5113453;28;20203;-73
2021/05/19 01:34:26;;;;;;;2.45;1.60;;;11.00;79.30;;;;;;5094619;28;20295;-75
2021/05/19 01:36:53;;;;;;;2.45;1.27;;;11.00;79.90;;;;;;5095643;28;20185;-75
2021/05/19 01:39:21;;;;;;;1.80;1.33;;;11.10;80.50;;;;;;5115393;28;20196;-74
2021/05/19 01:41:50;;;;;;;3.35;1.35;;;11.10;80.30;;;;;;5114923;28;20238;-75
2021/05/19 01:44:18;;;;;;;2.60;1.40;;;11.10;80.10;;;;;;5095259;28;20275;-73
2021/05/19 01:46:45;;;;;;;4.60;1.27;;;11.10;80.50;;;;;;5095322;28;20201;-73
2021/05/19 01:49:14;;;;;;;2.45;1.40;;;11.10;80.50;;;;;;5114040;28;20184;-73
2021/05/19 01:51:41;;;;;;;2.67;0.98;;;11.10;80.70;;;;;;5115150;28;20639;-74
2021/05/19 01:54:09;;;;;;;3.60;1.42;;;11.00;80.40;;;;;;5096409;28;20582;-74
2021/05/19 01:56:37;;;;;;;1.80;1.30;;;11.10;81.10;;;;;;5094871;28;20193;-73
2021/05/19 01:59:05;;;;;;;2.40;1.33;;;11.10;81.10;;;;;;5111761;28;20293;-74
2021/05/19 02:01:33;;;;;;;2.53;1.27;;;11.00;80.90;;;;;;5114915;28;20223;-74
2021/05/19 02:04:07;;;;;;;4.00;1.17;;;11.00;80.00;;;;;;5098522;28;20530;-73
2021/05/19 02:06:45;;;;;;;2.80;0.98;;;10.90;79.90;;;;;;5094855;28;20249;-73
2021/05/19 02:09:12;;;;;;;2.50;1.23;;;11.00;80.70;;;;;;5112578;28;20188;-74
2021/05/19 02:11:40;;;;;;;3.45;1.35;;;11.00;81.20;;;;;;5115022;28;20249;-73
2021/05/19 02:14:07;;;;;;;2.08;1.05;;;10.90;81.90;;;;;;5097028;28;20185;-73
2021/05/19 02:16:34;;;;;;;1.80;1.10;;;10.90;82.20;;;;;;5094543;28;20642;-73
2021/05/19 02:19:00;;;;;;;2.15;1.10;;;10.90;81.50;;;;;;5106456;28;20328;-74
2021/05/19 02:21:27;;;;;;;2.35;1.50;;;10.80;81.80;;;;;;5114359;28;20223;-73
2021/05/19 02:23:54;;;;;;;1.88;1.10;;;10.80;82.10;;;;;;5098992;28;20189;-73
2021/05/19 02:26:21;;;;;;;2.38;1.40;;;10.70;82.10;;;;;;5094632;28;20246;-73
2021/05/19 02:28:49;;;;;;;1.90;1.38;;;10.80;82.30;;;;;;5107618;28;20188;-73
2021/05/19 02:31:16;;;;;;;2.67;1.25;;;10.80;81.80;;;;;;5114222;28;20729;-74
2021/05/19 02:33:42;;;;;;;1.90;1.10;;;10.80;82.20;;;;;;5114361;28;20297;-73
2021/05/19 02:36:09;;;;;;;1.88;1.20;;;10.80;82.70;;;;;;5114272;28;20196;-73
2021/05/19 02:38:35;;;;;;;2.42;1.52;;;10.70;83.00;;;;;;5101626;28;20188;-73
2021/05/19 02:41:02;;;;;;;3.50;1.40;;;10.70;83.40;;;;;;5094105;28;20216;-74
2021/05/19 02:43:29;;;;;;;2.30;1.20;;;10.70;83.60;;;;;;5103642;28;20565;-73
2021/05/19 02:45:56;;;;;;;2.08;1.25;;;10.70;83.80;;;;;;5114151;28;20192;-74
2021/05/19 02:48:23;;;;;;;2.33;1.55;;;10.70;84.10;;;;;;5104136;28;20679;-74
2021/05/19 02:50:50;;;;;;;1.98;1.20;;;10.70;84.50;;;;;;5093717;28;20558;-73
2021/05/19 02:53:16;;;;;;;3.45;1.52;;;10.70;84.70;;;;;;5100932;28;20180;-74
2021/05/19 02:55:43;;;;;;;2.10;1.20;;;10.70;84.20;;;;;;5113769;28;20193;-73
2021/05/19 02:58:09;;;;;;;1.85;1.00;;;10.70;83.80;;;;;;5105859;28;20215;-73
2021/05/19 03:00:36;;;;;;;2.33;1.00;;;10.70;83.90;;;;;;5093343;28;20235;-73
2021/05/19 03:03:04;;;;;;;4.05;1.35;;;10.60;83.00;;;;;;5099234;28;20546;-73
2021/05/19 03:05:30;;;;;;;1.90;1.13;;;10.60;83.20;;;;;;5113775;28;20192;-73
2021/05/19 03:07:57;;;;;;;1.90;1.00;;;10.60;83.70;;;;;;5107777;28;20192;-73
2021/05/19 03:10:24;;;;;;;2.30;1.13;;;10.50;84.00;;;;;;5093270;28;20197;-73
2021/05/19 03:12:51;;;;;;;1.88;1.13;;;10.50;83.40;;;;;;5097193;28;20188;-74
2021/05/19 03:15:19;;;;;;;2.00;1.20;;;10.50;83.80;;;;;;5113717;28;20192;-74
2021/05/19 03:17:46;;;;;;;2.28;1.13;;;10.50;84.00;;;;;;5111988;28;20215;-73
2021/05/19 03:20:15;;;;;;;2.35;1.55;;;10.50;84.10;;;;;;5113533;28;20265;-73
2021/05/19 03:22:42;;;;;;;2.03;1.20;;;10.40;83.40;;;;;;5104030;28;20192;-73
2021/05/19 03:25:09;;;;;;;2.40;0.95;;;10.40;84.30;;;;;;5092989;28;20207;-73
2021/05/19 03:27:36;;;;;;;1.80;1.08;;;10.40;84.00;;;;;;5100525;28;20280;-73
2021/05/19 03:30:05;;;;;;;1.70;1.00;;;10.40;83.90;;;;;;5113357;28;20197;-73
2021/05/19 03:32:31;;;;;;;1.60;0.75;;;10.30;83.50;;;;;;5105752;28;20248;-73
2021/05/19 03:34:58;;;;;;;1.70;1.10;;;10.30;84.10;;;;;;5092765;28;20574;-73
2021/05/19 03:37:25;;;;;;;1.52;0.70;;;10.30;83.90;;;;;;5098345;28;20213;-75
2021/05/19 03:39:52;;;;;;;1.70;0.90;;;10.30;83.80;;;;;;5113216;28;20581;-74
2021/05/19 03:42:19;;;;;;;1.70;0.90;;;10.30;84.20;;;;;;5108052;28;20181;-74
2021/05/19 03:44:45;;;;;;;1.95;1.00;;;10.30;84.10;;;;;;5092967;28;20185;-73
2021/05/19 03:47:12;;;;;;;1.90;0.95;;;10.40;84.10;;;;;;5096487;28;20249;-73
2021/05/19 03:49:40;;;;;;;1.80;1.10;;;10.30;83.50;;;;;;5112108;28;20197;-74
2021/05/19 03:52:07;;;;;;;2.00;1.10;;;10.30;84.20;;;;;;5111023;28;20252;-74
2021/05/19 03:54:35;;;;;;;2.45;0.90;;;10.30;84.20;;;;;;5112604;28;20189;-74
2021/05/19 03:57:02;;;;;;;1.83;1.20;;;10.30;84.30;;;;;;5109027;28;20608;-73
2021/05/19 03:59:29;;;;;;;3.53;2.00;;;10.30;83.80;;;;;;5092406;28;20648;-76
2021/05/19 04:01:56;;;;;;;2.00;1.42;;;10.30;84.10;;;;;;5093598;28;20238;-74
2021/05/19 04:04:23;;;;;;;1.52;0.70;;;10.30;83.90;;;;;;5092982;28;20208;-74
2021/05/19 04:06:51;;;;;;;1.80;0.95;;;10.30;83.50;;;;;;5110768;28;20192;-75
2021/05/19 04:09:17;;;;;;;1.58;0.70;;;10.30;82.90;;;;;;5092839;28;20197;-75
2021/05/19 04:11:45;;;;;;;1.88;0.85;;;10.20;82.60;;;;;;5111137;28;20185;-75
2021/05/19 04:14:11;;;;;;;2.25;1.08;;;10.20;82.40;;;;;;5113077;28;20189;-75
2021/05/19 04:16:39;;;;;;;1.63;1.05;;;10.10;81.60;;;;;;5094986;28;20571;-76
2021/05/19 04:19:05;;;;;;;2.03;1.00;;;10.10;83.30;;;;;;5112438;28;20538;-74
2021/05/19 04:21:32;;;;;;;2.58;2.00;;;9.90;84.80;;;;;;5096519;28;20212;-74
2021/05/19 04:23:58;;;;;;;1.80;0.90;;;10.00;84.20;;;;;;5092420;28;20288;-75
2021/05/19 04:26:25;;;;;;;3.55;1.10;;;10.00;84.10;;;;;;5106552;28;20219;-75
2021/05/19 04:28:53;;;;;;;1.77;0.98;;;10.00;84.20;;;;;;5094655;28;20189;-75
2021/05/19 04:31:20;;;;;;;2.20;1.13;;;9.90;85.70;;;;;;5105625;28;20184;-74
2021/05/19 04:33:46;;;;;;;1.83;1.25;;;9.90;86.50;;;;;;5112648;28;20761;-74
2021/05/19 04:36:13;;;;;;;1.77;1.20;;;9.90;86.30;;;;;;5100343;28;20196;-75
2021/05/19 04:38:40;;;;;;;1.65;0.90;;;9.90;86.50;;;;;;5108314;28;20184;-75
2021/05/19 04:41:07;;;;;;;4.40;1.00;;;9.80;86.20;;;;;;5101824;28;20553;-75
2021/05/19 04:43:34;;;;;;;1.50;0.95;;;9.80;87.90;;;;;;5092257;28;20621;-75
2021/05/19 04:46:02;;;;;;;2.55;0.82;;;9.80;87.40;;;;;;5097480;28;20188;-75
2021/05/19 04:48:29;;;;;;;1.48;0.77;;;9.80;87.10;;;;;;5098193;28;20204;-74
2021/05/19 04:50:56;;;;;;;1.98;1.13;;;9.90;87.20;;;;;;5100270;28;20234;-75
2021/05/19 04:53:22;;;;;;;1.70;0.80;;;9.90;87.70;;;;;;5112513;28;20579;-76
2021/05/19 04:55:49;;;;;;;1.50;0.80;;;9.80;88.00;;;;;;5105600;28;20684;-75
2021/05/19 04:58:16;;;;;;;2.33;1.10;;;9.80;88.00;;;;;;5104115;28;20606;-74
2021/05/19 05:00:42;;;;;;;1.75;1.27;;;9.80;87.00;;;;;;5109324;28;20542;-74
2021/05/19 05:03:11;;;;;;;2.55;1.15;;;9.80;87.60;;;;;;5096132;28;20257;-75
2021/05/19 05:05:38;;;;;;;2.22;0.90;;;9.90;87.90;;;;;;5099081;28;20242;-74
2021/05/19 05:08:05;;;;;;;2.30;1.20;;;9.90;88.00;;;;;;5107371;28;20547;-74
2021/05/19 05:10:31;;;;;;;2.60;0.90;;;9.90;88.10;;;;;;5108967;28;20192;-74
2021/05/19 05:12:58;;;;;;;1.83;0.85;;;9.90;87.50;;;;;;5114989;28;20189;-77
2021/05/19 05:15:25;;;;;;;7.07;1.05;;;10.00;86.60;;;;;;5110052;28;20193;-76
2021/05/19 05:17:51;;;;;;;2.33;0.82;;;10.00;86.70;;;;;;5096756;28;20189;-75
2021/05/19 05:20:21;;;;;;;1.70;1.00;;;10.00;86.00;;;;;;5107668;28;20566;-76
2021/05/19 05:22:48;;;;;;;2.20;1.05;;;10.00;86.60;;;;;;5115918;28;20650;-76
2021/05/19 05:25:15;;;;;;;2.08;1.25;;;10.10;86.90;;;;;;5103951;28;20635;-75
2021/05/19 05:27:42;;;;;;;2.65;1.13;;;10.10;86.50;;;;;;5111561;28;20197;-75
2021/05/19 05:30:10;;;;;;;1.88;0.95;;;10.10;86.70;;;;;;5101407;28;20678;-74
2021/05/19 05:32:36;;;;;;;1.60;0.90;;;10.20;86.80;;;;;;5095552;28;20228;-75
2021/05/19 05:35:04;;;;;;;1.52;0.70;;;10.20;87.10;;;;;;5112473;28;20181;-75
2021/05/19 05:37:32;;;;;;;1.70;0.80;;;10.20;85.40;;;;;;5115697;28;20554;-75
2021/05/19 05:39:59;;;;;;;3.90;1.00;;;10.20;86.10;;;;;;5113093;28;20220;-75
2021/05/19 05:42:26;;;;;;;1.70;0.90;;;10.30;86.40;;;;;;5115931;28;20560;-75
2021/05/19 05:44:53;;;;;;;1.40;0.70;;;10.30;85.90;;;;;;5100929;28;20193;-75
2021/05/19 05:47:24;;;;;;;1.75;0.90;;;10.30;86.30;;;;;;5095149;28;20651;-75
2021/05/19 05:49:51;;;;;;;1.60;1.02;;;10.30;86.00;;;;;;5096175;28;20267;-75
2021/05/19 05:52:19;;;;;;;1.70;0.80;;;10.30;86.00;;;;;;5095186;28;20197;-81
2021/05/19 05:54:50;;;;;;;1.85;0.88;;;10.40;86.00;;;;;;5114254;28;20726;-81
2021/05/19 05:57:18;;;;;;;2.67;0.80;;;10.40;86.20;;;;;;5115502;28;20203;-80
2021/05/19 05:59:56;;;;;;;1.65;0.75;;;10.40;85.50;;;;;;5113533;28;20199;-80
2021/05/19 06:02:23;;;;;;;1.63;0.80;;;10.40;85.60;;;;;;5115660;28;20230;-73
2021/05/19 06:04:50;;;;;;;2.55;1.48;;;10.50;85.40;;;;;;5112898;28;20196;-75
2021/05/19 06:07:16;;;;;;;1.77;0.95;;;10.50;85.60;;;;;;5115249;28;20253;-74
2021/05/19 06:09:50;;;;;;;2.67;1.70;;;10.60;86.00;;;;;;5097693;28;20185;-74
2021/05/19 06:12:18;;;;;;;3.72;1.40;;;10.60;84.70;;;;;;5094008;28;20609;-74
2021/05/19 06:14:45;;;;;;;3.17;1.70;;;10.60;84.60;;;;;;5096677;28;20214;-74
2021/05/19 06:17:14;;;;;;;4.25;2.60;;;10.60;85.50;;;;;;5094588;28;20944;-75
2021/05/19 06:19:41;;;;;;;3.60;2.30;;;10.60;85.60;;;;;;5110272;28;20536;-74
2021/05/19 06:22:08;;;;;;;23.65;11.73;;;10.70;85.10;;;;;;5114999;28;20189;-74
2021/05/19 06:24:34;;;;;;;4.93;3.17;;;10.70;84.90;;;;;;5103695;28;20239;-74
2021/05/19 06:27:03;;;;;;;1.85;1.23;;;10.80;85.00;;;;;;5095243;28;20181;-74
2021/05/19 06:29:31;;;;;;;4.32;2.45;;;10.80;85.30;;;;;;5106994;28;20219;-74
2021/05/19 06:31:57;;;;;;;9.63;5.57;;;10.80;84.70;;;;;;5114758;28;20212;-74
2021/05/19 06:34:24;;;;;;;2.80;1.90;;;10.80;85.20;;;;;;5102257;28;20247;-75
2021/05/19 06:36:52;;;;;;;2.10;1.35;;;10.90;85.00;;;;;;5104007;28;20196;-75
2021/05/19 06:39:19;;;;;;;3.45;1.20;;;10.90;85.10;;;;;;5112514;28;20235;-74
2021/05/19 06:41:48;;;;;;;2.60;1.27;;;10.90;84.70;;;;;;5094259;28;20225;-74
2021/05/19 06:44:18;;;;;;;2.15;1.10;;;10.90;83.80;;;;;;5095372;28;20189;-74
2021/05/19 06:46:46;;;;;;;2.05;1.02;;;10.90;83.70;;;;;;5105011;28;20715;-74
2021/05/19 06:49:13;;;;;;;1.65;0.95;;;10.90;84.50;;;;;;5108488;28;20272;-74
2021/05/19 06:51:42;;;;;;;2.17;1.05;;;10.90;83.30;;;;;;5100786;28;20660;-74
2021/05/19 06:54:09;;;;;;;1.60;1.00;;;10.90;83.90;;;;;;5110276;28;20199;-73
2021/05/19 06:56:36;;;;;;;2.30;1.40;;;11.00;84.90;;;;;;5107696;28;20224;-74
2021/05/19 06:59:03;;;;;;;2.28;0.90;;;11.10;85.20;;;;;;5109185;28;20287;-75
2021/05/19 07:01:31;;;;;;;2.03;1.00;;;11.20;84.40;;;;;;5105533;28;20215;-74
2021/05/19 07:03:59;;;;;;;4.13;2.00;;;11.30;83.30;;;;;;5107782;28;20271;-74
2021/05/19 07:06:27;;;;;;;1.95;1.15;;;11.40;84.00;;;;;;5107447;28;20224;-75
2021/05/19 07:08:55;;;;;;;4.07;1.30;;;11.40;81.40;;;;;;5103957;28;20185;-74
2021/05/19 07:11:25;;;;;;;2.17;1.50;;;11.40;82.80;;;;;;5105678;28;20224;-74
2021/05/19 07:13:54;;;;;;;1.90;1.50;;;11.50;83.80;;;;;;5103516;28;20191;-74
2021/05/19 07:16:23;;;;;;;3.35;1.27;;;11.50;83.00;;;;;;5105807;28;20230;-74
2021/05/19 07:18:49;;;;;;;3.75;1.20;;;11.50;83.00;;;;;;5104167;28;20197;-74
2021/05/19 07:21:17;;;;;;;2.75;1.15;;;11.50;82.50;;;;;;5106069;28;20251;-74
2021/05/19 07:23:44;;;;;;;2.50;1.20;;;11.50;81.40;;;;;;5104675;28;20200;-75
2021/05/19 07:26:10;;;;;;;3.88;1.50;;;11.50;81.30;;;;;;5103039;28;20201;-75
2021/05/19 07:28:37;;;;;;;1.83;1.15;;;11.50;81.90;;;;;;5104002;28;20208;-74
2021/05/19 07:31:04;;;;;;;2.60;1.30;;;11.50;81.80;;;;;;5103934;28;20251;-74
2021/05/19 07:33:30;;;;;;;1.80;1.40;;;11.50;82.70;;;;;;5103716;28;20220;-74
2021/05/19 07:35:58;;;;;;;2.75;1.30;;;11.50;82.20;;;;;;5105274;28;20663;-74
2021/05/19 07:38:25;;;;;;;5.57;2.33;;;11.50;82.30;;;;;;5099954;28;20188;-74
2021/05/19 07:40:52;;;;;;;3.40;2.60;;;11.50;83.50;;;;;;5101245;28;20220;-74
2021/05/19 07:43:18;;;;;;;2.70;1.15;;;11.50;83.80;;;;;;5100874;28;20224;-74
2021/05/19 07:45:45;;;;;;;1.70;1.00;;;11.60;83.00;;;;;;5102378;28;20193;-74
2021/05/19 07:48:11;;;;;;;4.20;1.02;;;11.60;81.10;;;;;;5103154;28;20299;-74
2021/05/19 07:50:45;;;;;;;4.53;0.90;;;11.70;81.30;;;;;;5101353;28;20224;-74
2021/05/19 07:53:12;;;;;;;2.13;1.05;;;11.70;81.40;;;;;;5102044;28;20209;-74
2021/05/19 07:55:47;;;;;;;1.70;0.80;;;11.80;81.00;;;;;;5102530;28;20306;-75
2021/05/19 07:58:17;;;;;;;2.75;0.90;;;11.90;79.20;;;;;;5097917;28;20200;-74
2021/05/19 08:00:57;;;;;;;1.63;0.98;;;11.90;80.10;;;;;;5106820;28;20219;-74
2021/05/19 08:03:25;;;;;;;1.80;1.13;;;11.90;78.70;;;;;;5099739;28;21071;-74
2021/05/19 08:05:51;;;;;;;1.70;0.98;;;12.00;78.90;;;;;;5105017;28;20231;-73
2021/05/19 08:08:19;;;;;;;4.80;1.70;;;12.20;78.50;;;;;;5100976;28;20193;-74
2021/05/19 08:10:46;;;;;;;2.70;1.10;;;12.30;78.90;;;;;;5097708;28;20189;-74
2021/05/19 08:13:13;;;;;;;2.72;1.10;;;12.30;78.40;;;;;;5095886;28;20203;-74
2021/05/19 08:15:40;;;;;;;1.80;1.02;;;12.20;78.30;;;;;;5098707;28;20307;-74
2021/05/19 08:18:07;;;;;;;1.85;0.90;;;12.20;79.00;;;;;;5098476;28;20196;-74
2021/05/19 08:20:35;;;;;;;2.58;1.15;;;12.20;79.40;;;;;;5099006;28;20277;-74
2021/05/19 08:23:01;;;;;;;1.80;1.00;;;12.30;80.30;;;;;;5099183;28;20196;-74
2021/05/19 08:25:28;;;;;;;1.77;1.00;;;12.40;80.20;;;;;;5096995;28;20697;-74
2021/05/19 08:27:57;;;;;;;1.88;1.15;;;12.50;80.50;;;;;;5096985;28;20193;-73
2021/05/19 08:30:25;;;;;;;1.80;0.90;;;12.60;80.70;;;;;;5100790;28;20203;-74
2021/05/19 08:32:52;;;;;;;2.00;1.15;;;12.70;80.60;;;;;;5096100;28;20221;-74
2021/05/19 08:35:18;;;;;;;3.45;1.35;;;12.90;80.70;;;;;;5097738;28;20746;-74
2021/05/19 08:37:45;;;;;;;2.35;1.40;;;13.10;80.30;;;;;;5099893;28;20193;-75
2021/05/19 08:40:13;;;;;;;3.65;1.42;;;13.40;79.80;;;;;;5099094;28;20248;-74
2021/05/19 08:42:40;;;;;;;2.00;1.20;;;13.60;77.60;;;;;;5102120;28;20207;-74
2021/05/19 08:45:11;;;;;;;2.13;1.15;;;13.70;74.10;;;;;;5101467;28;20200;-74
2021/05/19 08:47:37;;;;;;;1.80;0.90;;;13.60;74.60;;;;;;5099999;28;20185;-74
2021/05/19 08:50:06;;;;;;;2.85;1.23;;;13.70;75.50;;;;;;5101453;28;21031;-74
2021/05/19 08:52:37;;;;;;;2.30;1.60;;;13.60;74.00;;;;;;5102036;28;20606;-75
2021/05/19 08:55:10;;;;;;;2.53;1.50;;;13.50;72.00;;;;;;5103325;28;20257;-73
2021/05/19 08:57:39;;;;;;;7.90;1.50;;;13.30;71.10;;;;;;5111716;28;20208;-73
2021/05/19 09:00:08;;;;;;;2.47;1.00;;;13.10;70.60;;;;;;5098759;28;20320;-73
2021/05/19 09:02:36;;;;;;;1.80;0.93;;;12.90;70.80;;;;;;5100800;28;20188;-73
2021/05/19 09:05:04;;;;;;;1.90;1.25;;;12.80;70.20;;;;;;5096808;28;20655;-74
2021/05/19 09:07:31;;;;;;;2.22;1.00;;;12.60;71.20;;;;;;5101487;28;20646;-74
2021/05/19 09:10:13;;;;;;;2.60;1.45;;;12.60;72.50;;;;;;5099677;28;20207;-74
2021/05/19 09:12:40;;;;;;;2.85;1.40;;;12.70;74.00;;;;;;5106502;28;20283;-74
2021/05/19 09:15:07;;;;;;;2.47;1.60;;;12.80;74.30;;;;;;5116406;28;20599;-74
2021/05/19 09:17:38;;;;;;;3.00;1.30;;;12.80;73.70;;;;;;5116146;28;20275;-73
2021/05/19 09:20:06;;;;;;;2.10;1.35;;;12.70;72.40;;;;;;5114490;28;20192;-73
2021/05/19 09:22:35;;;;;;;2.75;2.22;;;12.40;74.00;;;;;;5096099;28;20563;-74
2021/05/19 09:25:14;;;;;;;2.70;1.70;;;12.40;75.90;;;;;;5096687;28;20221;-74
2021/05/19 09:27:42;;;;;;;2.83;1.50;;;12.50;75.90;;;;;;5102548;28;20639;-73
2021/05/19 09:30:10;;;;;;;4.20;1.40;;;12.80;76.00;;;;;;5115851;28;20646;-74
2021/05/19 09:32:39;;;;;;;2.90;1.55;;;13.20;76.40;;;;;;5113655;28;20236;-73
2021/05/19 09:35:08;;;;;;;2.33;1.17;;;13.40;70.60;;;;;;5115536;28;20189;-73
2021/05/19 09:37:35;;;;;;;1.98;1.23;;;13.40;69.60;;;;;;5111933;28;20181;-73
2021/05/19 09:40:04;;;;;;;1.90;1.35;;;13.30;69.50;;;;;;5095328;28;20193;-73
2021/05/19 09:42:48;;;;;;;4.03;3.20;;;13.20;69.20;;;;;;5097298;28;20201;-73
2021/05/19 09:45:17;;;;;;;2.28;1.63;;;13.20;70.20;;;;;;5113225;27;20230;-73
2021/05/19 09:47:45;;;;;;;3.10;1.95;;;13.20;69.70;;;;;;5110031;28;20224;-73
2021/05/19 09:50:14;;;;;;;1.90;1.27;;;13.30;71.40;;;;;;5095470;28;20565;-73
2021/05/19 09:53:01;;;;;;;1.80;1.27;;;13.50;70.80;;;;;;5101121;28;20196;-73
2021/05/19 09:55:27;;;;;;;3.92;1.35;;;13.70;70.70;;;;;;5102561;28;20185;-73
2021/05/19 09:57:55;;;;;;;1.95;1.35;;;14.20;69.80;;;;;;5102808;28;20184;-75
2021/05/19 10:00:25;;;;;;;2.97;1.40;;;14.60;70.70;;;;;;5109605;28;20235;-73
2021/05/19 10:03:00;;;;;;;4.10;1.83;;;15.10;68.80;;;;;;5107713;28;20792;-74
2021/05/19 10:05:34;;;;;;;3.13;1.70;;;15.40;66.10;;;;;;5095965;28;20434;-73
2021/05/19 10:08:01;;;;;;;2.53;1.57;;;15.50;63.70;;;;;;5102039;28;20426;-74
2021/05/19 10:10:28;;;;;;;2.90;1.77;;;15.50;63.50;;;;;;5115145;28;20446;-74
2021/05/19 10:12:55;;;;;;;2.83;1.80;;;15.40;62.00;;;;;;5115579;28;20440;-74
2021/05/19 10:15:26;;;;;;;2.20;1.43;;;15.10;61.50;;;;;;5115126;28;20480;-74
2021/05/19 10:18:02;;;;;;;1.93;1.10;;;15.00;61.80;;;;;;5110693;28;20449;-75
2021/05/19 10:20:35;;;;;;;3.13;1.73;;;14.90;62.00;;;;;;5103472;28;20480;-74
2021/05/19 10:23:06;;;;;;;2.10;1.30;;;14.60;62.40;;;;;;5112793;28;20904;-75
2021/05/19 10:25:36;;;;;;;2.75;1.70;;;14.40;63.30;;;;;;5105776;28;20504;-74
2021/05/19 10:28:09;;;;;;;2.60;1.20;;;14.10;64.80;;;;;;5094594;28;20276;-74
2021/05/19 10:30:39;;;;;;;1.50;1.00;;;13.90;65.10;;;;;;5101735;28;20442;-74
2021/05/19 10:33:09;;;;;;;2.85;1.55;;;13.70;65.50;;;;;;5113913;28;20216;-74
2021/05/19 10:35:37;;;;;;;2.15;1.38;;;13.60;67.60;;;;;;5106492;28;20201;-73
2021/05/19 10:38:17;;;;;;;4.05;3.10;;;13.90;70.10;;;;;;5094200;28;20193;-73
2021/05/19 10:40:51;;;;;;;2.80;1.60;;;14.50;72.40;;;;;;5102233;28;20678;-74
2021/05/19 10:43:18;;;;;;;2.65;2.03;;;15.10;68.40;;;;;;5112996;28;20499;-74
2021/05/19 10:45:58;;;;;;;2.90;2.03;;;15.50;64.70;;;;;;5113371;28;20184;-74
2021/05/19 10:48:30;;;;;;;2.73;1.70;;;15.80;65.60;;;;;;5114481;28;20483;-74
2021/05/19 10:51:01;;;;;;;6.13;1.93;;;16.10;65.70;;;;;;5098892;28;20440;-74
2021/05/19 10:59:14;;;;;;;2.57;1.97;;;15.90;59.50;;;;;;5104822;28;20438;-74
2021/05/19 11:01:56;;;;;;;2.93;1.80;;;15.50;59.40;;;;;;5093568;28;21023;-74
2021/05/19 11:04:26;;;;;;;3.13;2.00;;;15.30;59.90;;;;;;5093988;28;20818;-74
2021/05/19 11:07:05;;;;;;;2.43;1.60;;;15.00;61.70;;;;;;5093327;28;20961;-74
2021/05/19 11:09:33;;;;;;;3.13;1.77;;;14.70;63.10;;;;;;5107303;28;20546;-74
2021/05/19 11:12:49;;;;;;;2.87;2.10;;;14.50;64.00;;;;;;5114255;28;20961;-74
2021/05/19 11:15:45;;;;;;;3.63;2.30;;;14.20;64.70;;;;;;5051252;28;20436;-73
2021/05/19 11:18:18;;;;;;;5.60;2.73;;;13.80;59.80;;;;;;5050979;28;20433;-74
2021/05/19 11:20:46;;;;;;;4.57;2.65;;;13.50;58.80;;;;;;5088888;28;20540;-73
2021/05/19 11:23:13;;;;;;;5.53;2.67;;;13.10;59.90;;;;;;5093375;28;20192;-74
2021/05/19 11:25:40;;;;;;;6.05;2.17;;;12.80;60.40;;;;;;5095848;28;20763;-73
2021/05/19 11:28:08;;;;;;;2.55;2.15;;;12.60;62.20;;;;;;5111728;28;20185;-74
2021/05/19 11:30:44;;;;;;;2.92;2.10;;;12.40;62.00;;;;;;5114147;28;20193;-73
2021/05/19 11:33:16;;;;;;;2.65;2.03;;;12.20;62.60;;;;;;5092412;28;20682;-74
2021/05/19 11:35:53;;;;;;;3.55;2.45;;;12.00;60.50;;;;;;5093194;28;20224;-75
2021/05/19 11:38:24;;;;;;;3.95;2.63;;;11.80;62.70;;;;;;5093597;28;20638;-75
2021/05/19 11:40:53;;;;;;;4.00;3.08;;;11.60;64.80;;;;;;5106174;28;20216;-74
2021/05/19 11:43:23;;;;;;;4.13;2.50;;;11.40;65.70;;;;;;5113861;28;20618;-75
2021/05/19 11:45:58;;;;;;;4.15;3.10;;;11.30;66.00;;;;;;5113065;28;20192;-75
2021/05/19 11:48:27;;;;;;;3.75;2.40;;;11.20;67.50;;;;;;5113224;28;20296;-74
2021/05/19 11:50:56;;;;;;;3.90;2.92;;;11.10;66.90;;;;;;5101998;28;20231;-74
2021/05/19 11:53:24;;;;;;;3.50;2.80;;;11.00;69.70;;;;;;5092930;28;20238;-74
2021/05/19 11:55:52;;;;;;;4.07;2.70;;;10.90;69.40;;;;;;5105758;28;20224;-74
2021/05/19 11:58:20;;;;;;;4.30;3.78;;;10.80;70.70;;;;;;5110929;28;20184;-75
2021/05/19 12:00:49;;;;;;;3.67;2.85;;;10.80;71.70;;;;;;5099729;28;20208;-74
2021/05/19 12:03:21;;;;;;;7.57;3.83;;;10.90;71.30;;;;;;5113586;28;20279;-74
2021/05/19 12:05:51;;;;;;;3.55;3.08;;;10.80;72.40;;;;;;5111368;28;20267;-73
2021/05/19 12:08:35;;;;;;;3.63;3.05;;;10.90;73.50;;;;;;5093549;28;20189;-73
2021/05/19 12:11:06;;;;;;;4.00;3.10;;;11.00;74.40;;;;;;5094245;28;20218;-73
2021/05/19 12:13:36;;;;;;;3.22;2.58;;;11.20;75.80;;;;;;5113255;28;20192;-74
2021/05/19 12:16:03;;;;;;;4.47;3.20;;;11.40;76.30;;;;;;5109111;28;20184;-74
2021/05/19 12:18:30;;;;;;;2.97;2.38;;;11.70;74.30;;;;;;5092553;28;20246;-74
2021/05/19 12:21:06;;;;;;;3.05;2.33;;;12.10;76.60;;;;;;5093220;28;20252;-74
2021/05/19 12:23:36;;;;;;;4.40;2.50;;;12.50;75.40;;;;;;5112571;28;20545;-74
2021/05/19 12:26:03;;;;;;;6.82;2.65;;;12.70;72.20;;;;;;5109981;28;20578;-74
2021/05/19 12:28:33;;;;;;;2.60;2.15;;;12.80;71.70;;;;;;5092474;28;20193;-75
2021/05/19 12:31:00;;;;;;;4.40;2.97;;;12.90;71.80;;;;;;5093413;28;20189;-74
2021/05/19 12:33:37;;;;;;;3.38;2.63;;;13.00;71.00;;;;;;5106701;28;20678;-75
2021/05/19 12:36:05;;;;;;;3.22;2.20;;;13.00;70.80;;;;;;5111015;28;20202;-74
2021/05/19 12:38:48;;;;;;;3.75;2.53;;;13.00;70.10;;;;;;5092438;28;20193;-74
2021/05/19 12:41:33;;;;;;;3.30;2.65;;;13.00;69.50;;;;;;5090671;28;20553;-74
2021/05/19 12:44:00;;;;;;;4.20;2.70;;;12.90;70.90;;;;;;5092119;28;20185;-74
2021/05/19 12:46:27;;;;;;;3.70;2.85;;;12.80;72.20;;;;;;5098313;28;20649;-74
2021/05/19 12:48:57;;;;;;;2.97;2.20;;;12.80;72.50;;;;;;5112913;28;20329;-75
2021/05/19 12:51:25;;;;;;;3.45;2.30;;;12.90;73.20;;;;;;5111043;28;20765;-74
2021/05/19 12:53:55;;;;;;;3.05;2.22;;;12.90;73.50;;;;;;5110799;28;20202;-74
2021/05/19 12:56:25;;;;;;;4.35;2.10;;;12.80;69.50;;;;;;5096254;28;20660;-74
2021/05/19 12:58:55;;;;;;;2.40;1.90;;;12.60;68.00;;;;;;5092512;28;20259;-73
2021/05/19 13:01:22;;;;;;;2.80;2.20;;;12.50;66.70;;;;;;5105733;28;20216;-73